Time;durP1;ratioP1;P1;durP2;ratioP2;P2;SDS_P1;SDS_P2;PMS_P1;PMS_P2;Temp;Humidity;BMP_temperature;BMP_pressure;BME280_temperature;BME280_humidity;BME280_pressure;Samples;Min_cycle;Max_cycle;Signal;HPM_P1;HPM_P2
2022/10/05 00:00:58;;;;;;;8.00;4.78;;;15.50;99.90;;;;;;5034949;28;20031;-90
2022/10/05 00:03:28;;;;;;;6.85;3.63;;;15.50;99.90;;;;;;5039134;28;20028;-91
2022/10/05 00:05:54;;;;;;;7.35;4.30;;;15.50;99.90;;;;;;5038792;28;20484;-91
2022/10/05 00:08:22;;;;;;;7.82;3.72;;;15.50;99.90;;;;;;5038040;28;20113;-89
2022/10/05 00:10:49;;;;;;;6.65;4.50;;;15.50;99.90;;;;;;5038118;28;20036;-91
2022/10/05 00:13:19;;;;;;;10.30;3.80;;;15.50;99.90;;;;;;5036547;28;20029;-92
2022/10/05 00:15:46;;;;;;;7.97;4.47;;;15.50;99.90;;;;;;5046785;28;20094;-91
2022/10/05 00:18:14;;;;;;;13.23;4.43;;;15.40;99.90;;;;;;5036934;28;20025;-90
2022/10/05 00:20:41;;;;;;;7.47;4.63;;;15.50;99.90;;;;;;5033159;28;20048;-91
2022/10/05 00:23:11;;;;;;;7.32;3.80;;;15.40;99.90;;;;;;5035566;28;20036;-91
2022/10/05 00:25:38;;;;;;;7.20;5.00;;;15.40;99.90;;;;;;5033939;28;20788;-90
2022/10/05 00:28:29;;;;;;;9.80;4.57;;;15.40;99.90;;;;;;5040499;28;21444;-91
2022/10/05 00:30:56;;;;;;;11.00;4.95;;;15.40;99.90;;;;;;5035059;28;20069;-91
2022/10/05 00:33:22;;;;;;;11.10;5.20;;;15.40;99.90;;;;;;5035945;28;20036;-90
2022/10/05 00:35:48;;;;;;;8.05;5.22;;;15.40;99.90;;;;;;5037340;28;21976;-91
2022/10/05 00:38:15;;;;;;;8.07;5.30;;;15.40;99.90;;;;;;5037996;28;20029;-91
2022/10/05 00:41:11;;;;;;;10.27;5.85;;;15.40;99.90;;;;;;5038774;28;20029;-91
2022/10/05 00:44:15;;;;;;;9.23;5.68;;;15.40;99.90;;;;;;5035971;28;20021;-91
2022/10/05 00:46:56;;;;;;;7.85;5.18;;;15.30;99.90;;;;;;5032395;28;20033;-90
2022/10/05 00:49:59;;;;;;;9.00;5.38;;;15.30;99.90;;;;;;5032470;28;20033;-90
2022/10/05 00:52:40;;;;;;;10.27;5.30;;;15.30;99.90;;;;;;5016989;28;20037;-91
2022/10/05 00:55:26;;;;;;;7.75;5.47;;;15.30;99.90;;;;;;5045340;28;20075;-91
2022/10/05 00:58:10;;;;;;;10.90;6.25;;;15.30;99.90;;;;;;5037597;28;20035;-90
2022/10/05 01:01:04;;;;;;;9.98;5.60;;;15.20;99.90;;;;;;5037313;28;20029;-90
2022/10/05 01:04:04;;;;;;;13.00;6.32;;;15.20;99.90;;;;;;5038243;28;20033;-91
2022/10/05 01:06:43;;;;;;;11.27;5.75;;;15.20;99.90;;;;;;5033287;28;20087;-90
2022/10/05 01:09:18;;;;;;;10.00;6.00;;;15.20;99.90;;;;;;5036532;28;20024;-91
2022/10/05 01:12:11;;;;;;;8.52;6.43;;;15.20;99.90;;;;;;5052524;28;20025;-90
2022/10/05 01:14:39;;;;;;;;;;;15.10;99.90;;;;;;5035193;28;20040;-91
2022/10/05 01:17:15;;;;;;;8.50;5.47;;;15.10;99.90;;;;;;5037115;28;20429;-92
2022/10/05 01:20:02;;;;;;;10.60;6.60;;;15.10;99.90;;;;;;5035203;28;21785;-90
2022/10/05 01:23:00;;;;;;;11.60;6.72;;;15.10;99.90;;;;;;5036317;28;20036;-90
2022/10/05 01:25:51;;;;;;;12.00;6.75;;;15.10;99.90;;;;;;5035419;28;20103;-91
2022/10/05 01:28:43;;;;;;;10.68;6.28;;;15.10;99.90;;;;;;5050920;28;20116;-91
2022/10/05 01:31:22;;;;;;;8.13;6.43;;;15.10;99.90;;;;;;5036946;28;20448;-91
2022/10/05 01:34:20;;;;;;;10.45;7.00;;;15.10;99.90;;;;;;5034028;28;20028;-91
2022/10/05 01:37:24;;;;;;;11.30;7.00;;;15.10;99.90;;;;;;5046727;28;20040;-89
2022/10/05 01:40:27;;;;;;;10.65;6.85;;;15.10;99.90;;;;;;5036882;28;20052;-90
2022/10/05 01:43:27;;;;;;;11.23;7.45;;;15.10;99.90;;;;;;5035616;28;20041;-91
2022/10/05 01:46:31;;;;;;;9.60;7.03;;;15.10;99.90;;;;;;5004198;28;20049;-91
2022/10/05 01:49:31;;;;;;;11.10;7.28;;;15.10;99.90;;;;;;5036267;28;20377;-91
2022/10/05 01:52:27;;;;;;;11.07;7.57;;;15.10;99.90;;;;;;5033082;28;21248;-90
2022/10/05 01:55:11;;;;;;;12.00;7.47;;;15.00;99.90;;;;;;5049296;28;20028;-92
2022/10/05 01:58:02;;;;;;;13.15;7.50;;;15.00;99.90;;;;;;5031354;28;20029;-91
2022/10/05 02:00:31;;;;;;;14.05;8.13;;;15.00;99.90;;;;;;5034449;28;20071;-91
2022/10/05 02:03:07;;;;;;;12.65;7.78;;;15.00;99.90;;;;;;5034582;28;20017;-91
2022/10/05 02:05:57;;;;;;;11.73;8.45;;;15.00;99.90;;;;;;5033602;28;20611;-92
2022/10/05 02:08:46;;;;;;;8.98;6.93;;;15.00;99.90;;;;;;5026704;28;20485;-92
2022/10/05 02:11:13;;;;;;;11.55;6.95;;;14.90;99.90;;;;;;5035652;28;20056;-91
2022/10/05 02:13:43;;;;;;;9.95;6.93;;;14.90;99.90;;;;;;5035002;28;20504;-91
2022/10/05 02:16:19;;;;;;;13.55;8.45;;;14.80;99.90;;;;;;5031095;28;20047;-90
2022/10/05 02:18:52;;;;;;;12.38;7.38;;;14.90;99.90;;;;;;5035375;28;20120;-90
2022/10/05 02:21:20;;;;;;;10.20;7.03;;;14.80;99.90;;;;;;5036659;28;20029;-91
2022/10/05 02:23:49;;;;;;;9.15;6.55;;;14.80;99.90;;;;;;5037602;28;20079;-91
2022/10/05 02:26:16;;;;;;;11.77;7.35;;;14.80;99.90;;;;;;5035509;28;20560;-91
2022/10/05 02:28:47;;;;;;;11.00;7.88;;;14.70;99.90;;;;;;5037699;28;20075;-91
2022/10/05 02:31:16;;;;;;;11.82;7.53;;;14.70;99.90;;;;;;5032989;28;20038;-91
2022/10/05 02:33:42;;;;;;;11.00;7.15;;;14.70;99.90;;;;;;5033279;28;20370;-92
2022/10/05 02:36:27;;;;;;;10.50;7.70;;;14.70;99.90;;;;;;5034413;28;20037;-92
2022/10/05 02:39:10;;;;;;;11.75;7.78;;;14.60;99.90;;;;;;5037361;28;20038;-91
2022/10/05 02:41:50;;;;;;;12.35;7.80;;;14.60;99.90;;;;;;5041320;28;20032;-92
2022/10/05 02:44:44;;;;;;;10.85;7.95;;;14.60;99.90;;;;;;5031554;28;20036;-92
2022/10/05 02:47:26;;;;;;;11.52;8.18;;;14.60;99.90;;;;;;5031899;28;20119;-92
2022/10/05 02:50:26;;;;;;;12.60;7.80;;;14.50;99.90;;;;;;5034827;28;20071;-92
2022/10/05 02:53:42;;;;;;;11.40;7.68;;;14.50;99.90;;;;;;5034360;28;20067;-91
2022/10/05 02:56:22;;;;;;;15.52;9.00;;;14.50;99.90;;;;;;4921931;29;20031;-92
2022/10/05 02:59:23;;;;;;;13.13;7.57;;;14.40;99.90;;;;;;5021118;28;20033;-93
2022/10/05 03:01:53;;;;;;;14.32;8.70;;;14.40;99.90;;;;;;5004645;28;20047;-90
2022/10/05 03:04:40;;;;;;;13.73;8.52;;;14.40;99.90;;;;;;5033114;28;20065;-91
2022/10/05 03:07:24;;;;;;;12.77;8.88;;;14.40;99.90;;;;;;5039247;28;20060;-91
2022/10/05 03:10:18;;;;;;;14.23;9.13;;;14.40;99.90;;;;;;5041793;28;20090;-92
2022/10/05 03:13:06;;;;;;;14.60;8.45;;;14.40;99.90;;;;;;5036930;28;20307;-92
2022/10/05 03:15:48;;;;;;;14.00;9.82;;;14.40;99.90;;;;;;5035216;28;20044;-91
2022/10/05 03:18:34;;;;;;;13.23;8.13;;;14.40;99.90;;;;;;5040567;28;20033;-91
2022/10/05 03:21:32;;;;;;;15.73;9.23;;;14.50;99.90;;;;;;5050136;28;20044;-90
2022/10/05 03:24:19;;;;;;;12.65;8.95;;;14.50;99.90;;;;;;5038203;28;20504;-90
2022/10/05 03:27:09;;;;;;;14.68;8.60;;;14.50;99.90;;;;;;5040478;28;20041;-92
2022/10/05 03:29:53;;;;;;;14.30;9.15;;;14.50;99.90;;;;;;5038998;28;20028;-91
2022/10/05 03:32:32;;;;;;;15.90;9.10;;;14.50;99.90;;;;;;5039617;28;20330;-91
2022/10/05 03:35:20;;;;;;;13.68;8.73;;;14.60;99.90;;;;;;5037245;28;20484;-91
2022/10/05 03:37:48;;;;;;;14.10;8.23;;;14.60;99.90;;;;;;5036897;28;20481;-91
2022/10/05 03:40:56;;;;;;;13.90;8.65;;;14.60;99.90;;;;;;5038787;28;20029;-91
2022/10/05 03:43:25;;;;;;;16.70;9.95;;;14.70;99.90;;;;;;5038973;28;20037;-91
2022/10/05 03:46:10;;;;;;;18.25;9.00;;;14.70;99.90;;;;;;5038615;28;20116;-91
2022/10/05 03:48:45;;;;;;;13.70;8.20;;;14.60;99.90;;;;;;5046761;28;20401;-91
2022/10/05 03:51:34;;;;;;;12.43;8.38;;;14.60;99.90;;;;;;5041327;28;20021;-92
2022/10/05 03:54:08;;;;;;;12.73;8.45;;;14.60;99.90;;;;;;5037015;28;20041;-91
2022/10/05 03:56:40;;;;;;;15.98;9.38;;;14.70;99.90;;;;;;5035503;28;20032;-91
2022/10/05 03:59:20;;;;;;;12.75;8.98;;;14.70;99.90;;;;;;5040763;28;20086;-92
2022/10/05 04:01:53;;;;;;;12.85;8.30;;;14.70;99.90;;;;;;5039507;28;20028;-91
2022/10/05 04:04:30;;;;;;;13.18;8.63;;;14.60;99.90;;;;;;5050859;28;20033;-91
2022/10/05 04:07:00;;;;;;;13.48;9.20;;;14.70;99.90;;;;;;5041796;28;20063;-90
2022/10/05 04:09:45;;;;;;;10.50;7.88;;;14.60;99.90;;;;;;5034562;28;20029;-92
2022/10/05 04:12:24;;;;;;;12.23;8.32;;;14.70;99.90;;;;;;5037998;28;20048;-91
2022/10/05 04:14:55;;;;;;;11.98;8.45;;;14.70;99.90;;;;;;5038181;28;20086;-92
2022/10/05 04:17:30;;;;;;;11.38;8.48;;;14.70;99.90;;;;;;5039121;28;20392;-89
2022/10/05 04:20:23;;;;;;;10.45;7.72;;;14.70;99.90;;;;;;5036685;28;20087;-91
2022/10/05 04:23:00;;;;;;;;;;;14.70;99.90;;;;;;5037428;28;20036;-90
2022/10/05 04:25:33;;;;;;;15.88;8.10;;;14.70;99.90;;;;;;5038225;28;20007;-92
2022/10/05 04:28:24;;;;;;;12.07;8.07;;;14.60;99.90;;;;;;5046300;28;20179;-90
2022/10/05 04:30:52;;;;;;;13.63;8.55;;;14.60;99.90;;;;;;5033969;28;21913;-92
2022/10/05 04:33:18;;;;;;;11.98;7.70;;;14.60;99.90;;;;;;5038745;28;20071;-91
2022/10/05 04:35:58;;;;;;;14.15;8.65;;;14.60;99.90;;;;;;5031896;28;20068;-92
2022/10/05 04:38:26;;;;;;;12.95;7.95;;;14.60;99.90;;;;;;5033463;28;20036;-91
2022/10/05 04:41:04;;;;;;;15.10;7.90;;;14.60;99.90;;;;;;5029343;28;20334;-90
2022/10/05 04:43:56;;;;;;;14.98;8.32;;;14.60;99.90;;;;;;5045490;28;20025;-91
2022/10/05 04:46:36;;;;;;;12.32;8.02;;;14.60;99.90;;;;;;5053085;28;20481;-92
2022/10/05 04:49:23;;;;;;;13.02;8.45;;;14.70;99.90;;;;;;5053922;28;20353;-91
2022/10/05 04:51:55;;;;;;;12.75;7.72;;;14.70;99.90;;;;;;5051759;28;20072;-91
2022/10/05 04:54:35;;;;;;;13.35;7.55;;;14.60;99.90;;;;;;5046368;28;20036;-91
2022/10/05 04:57:06;;;;;;;11.65;7.78;;;14.60;99.90;;;;;;5048033;28;20091;-91
2022/10/05 05:00:00;;;;;;;11.75;7.82;;;14.70;99.90;;;;;;5051885;28;20029;-91
2022/10/05 05:02:34;;;;;;;11.65;7.43;;;14.70;99.90;;;;;;5051864;28;20053;-91
2022/10/05 05:05:18;;;;;;;13.23;7.57;;;14.70;99.90;;;;;;5029679;28;20044;-91
2022/10/05 05:07:48;;;;;;;11.60;8.00;;;14.70;99.90;;;;;;5036792;28;20028;-92
2022/10/05 05:10:22;;;;;;;16.45;7.88;;;14.60;99.90;;;;;;5045006;28;20035;-91
2022/10/05 05:13:03;;;;;;;11.63;7.75;;;14.60;99.90;;;;;;5044545;28;20140;-91
2022/10/05 05:16:18;;;;;;;13.77;8.75;;;14.60;99.90;;;;;;5053420;28;20393;-92
2022/10/05 05:19:22;;;;;;;13.90;8.27;;;14.60;99.90;;;;;;5027725;28;20052;-91
2022/10/05 05:22:29;;;;;;;15.68;8.55;;;14.60;99.90;;;;;;5011973;28;20041;-92
2022/10/05 05:25:32;;;;;;;12.45;7.30;;;14.60;99.90;;;;;;5049384;28;20397;-91
2022/10/05 05:28:18;;;;;;;9.95;7.78;;;14.50;99.90;;;;;;5050457;28;20032;-91
2022/10/05 05:30:50;;;;;;;11.32;7.63;;;14.50;99.90;;;;;;5049242;28;20041;-92
2022/10/05 05:33:21;;;;;;;11.13;7.43;;;14.50;99.90;;;;;;5045074;28;20116;-91
2022/10/05 05:36:15;;;;;;;11.50;7.88;;;14.50;99.90;;;;;;5047957;28;20044;-93
2022/10/05 05:38:57;;;;;;;10.18;7.32;;;14.50;99.90;;;;;;5053009;28;20036;-92
2022/10/05 05:41:36;;;;;;;12.13;7.88;;;14.50;99.90;;;;;;5053155;28;20033;-91
2022/10/05 05:44:24;;;;;;;9.82;6.55;;;14.50;99.90;;;;;;5052971;28;20037;-92
2022/10/05 05:46:58;;;;;;;8.95;5.88;;;14.60;99.90;;;;;;5039131;28;20037;-92
2022/10/05 05:49:29;;;;;;;10.88;5.60;;;14.60;99.90;;;;;;5047164;28;20076;-91
2022/10/05 05:52:00;;;;;;;8.88;5.70;;;14.60;99.90;;;;;;5041693;28;20566;-92
2022/10/05 05:54:44;;;;;;;7.18;5.32;;;14.60;99.90;;;;;;5043300;28;20028;-92
2022/10/05 05:57:20;;;;;;;9.70;5.90;;;14.70;99.90;;;;;;5042620;28;20412;-92
2022/10/05 05:59:48;;;;;;;7.93;4.97;;;14.70;99.90;;;;;;5041136;28;20029;-92
2022/10/05 06:02:20;;;;;;;7.32;4.82;;;14.70;99.90;;;;;;5045565;28;20028;-90
2022/10/05 06:04:56;;;;;;;6.15;4.30;;;14.80;99.90;;;;;;5054303;28;20412;-90
2022/10/05 06:07:27;;;;;;;6.63;4.28;;;14.80;99.90;;;;;;5052070;28;20120;-91
2022/10/05 06:10:00;;;;;;;8.60;4.18;;;14.80;99.90;;;;;;5042170;28;20021;-92
2022/10/05 06:12:37;;;;;;;8.00;5.35;;;14.80;99.90;;;;;;5036679;28;20116;-91
2022/10/05 06:15:21;;;;;;;9.57;4.30;;;14.80;99.90;;;;;;5042207;28;20021;-91
2022/10/05 06:17:51;;;;;;;8.20;4.57;;;14.80;99.90;;;;;;5034382;28;20040;-91
2022/10/05 06:20:31;;;;;;;8.32;4.15;;;14.80;99.90;;;;;;5043212;28;20158;-93
2022/10/05 06:23:01;;;;;;;6.35;4.43;;;14.80;99.90;;;;;;5043030;28;20040;-91
2022/10/05 06:25:51;;;;;;;8.20;4.22;;;14.80;99.90;;;;;;5042249;28;20025;-91
2022/10/05 06:28:18;;;;;;;7.03;3.67;;;14.90;99.90;;;;;;5041628;28;20434;-92
2022/10/05 06:31:11;;;;;;;8.50;4.45;;;14.80;99.90;;;;;;5042886;28;20503;-92
2022/10/05 06:33:42;;;;;;;6.80;3.50;;;14.80;99.90;;;;;;5040297;28;20025;-91
2022/10/05 06:36:36;;;;;;;5.87;3.13;;;14.80;99.90;;;;;;5036665;28;20026;-91
2022/10/05 06:39:19;;;;;;;5.80;3.50;;;14.80;99.90;;;;;;5037011;28;20107;-91
2022/10/05 06:42:24;;;;;;;6.07;3.30;;;14.90;99.90;;;;;;5039579;28;20074;-91
2022/10/05 06:45:06;;;;;;;5.28;3.80;;;14.90;99.90;;;;;;5040956;28;20541;-91
2022/10/05 06:47:44;;;;;;;9.20;3.80;;;14.90;99.90;;;;;;5037108;28;20036;-91
2022/10/05 06:50:21;;;;;;;8.27;4.13;;;14.90;99.90;;;;;;5049879;28;20025;-90
2022/10/05 06:53:02;;;;;;;7.43;3.17;;;15.00;99.90;;;;;;5047895;28;20708;-92
2022/10/05 06:55:49;;;;;;;7.40;3.67;;;15.00;99.90;;;;;;5048628;28;20035;-93
2022/10/05 06:58:30;;;;;;;6.43;3.92;;;15.00;99.90;;;;;;5044746;28;20021;-91
2022/10/05 07:01:10;;;;;;;10.68;4.22;;;15.00;99.90;;;;;;5048281;28;20024;-93
2022/10/05 07:04:10;;;;;;;7.32;3.67;;;15.00;99.90;;;;;;5050754;28;20029;-91
2022/10/05 07:06:38;;;;;;;8.70;4.07;;;15.00;99.90;;;;;;5047480;28;20142;-91
2022/10/05 07:09:32;;;;;;;6.32;3.83;;;15.10;99.90;;;;;;5045566;28;20111;-91
2022/10/05 07:12:07;;;;;;;8.13;3.80;;;15.10;99.90;;;;;;5040821;28;20014;-92
2022/10/05 07:15:02;;;;;;;4.78;3.65;;;15.10;99.90;;;;;;5038097;28;20025;-91
2022/10/05 07:17:46;;;;;;;7.20;4.03;;;15.10;99.90;;;;;;5044027;28;20044;-92
2022/10/05 07:20:34;;;;;;;7.20;4.03;;;15.20;99.90;;;;;;5049955;28;20033;-92
2022/10/05 07:23:31;;;;;;;6.45;3.38;;;15.20;99.90;;;;;;5047863;28;20048;-93
2022/10/05 07:26:24;;;;;;;5.22;3.25;;;15.20;99.90;;;;;;5050785;28;20034;-92
2022/10/05 07:29:25;;;;;;;5.60;3.67;;;15.20;99.90;;;;;;5056028;28;20033;-91
2022/10/05 07:32:31;;;;;;;5.82;3.22;;;15.30;99.90;;;;;;5045468;28;20584;-92
2022/10/05 07:34:57;;;;;;;6.35;3.47;;;15.30;99.90;;;;;;5043742;28;20428;-92
2022/10/05 07:37:56;;;;;;;4.70;2.85;;;15.40;99.90;;;;;;5055499;28;20022;-91
2022/10/05 07:40:36;;;;;;;4.40;3.22;;;15.40;99.90;;;;;;5044143;28;20025;-92
2022/10/05 07:43:25;;;;;;;4.45;3.03;;;15.50;99.90;;;;;;5048666;28;20527;-92
2022/10/05 07:46:04;;;;;;;4.03;2.00;;;15.50;99.90;;;;;;5037991;28;20041;-93
2022/10/05 07:48:52;;;;;;;5.50;2.28;;;15.50;99.90;;;;;;5060786;28;20404;-92
2022/10/05 07:51:26;;;;;;;5.30;2.63;;;15.60;99.90;;;;;;5058225;28;20031;-91
2022/10/05 07:54:04;;;;;;;7.20;2.00;;;15.70;99.90;;;;;;5044140;28;20086;-93
2022/10/05 07:56:42;;;;;;;5.13;2.20;;;15.70;99.90;;;;;;5044297;28;20041;-94
2022/10/05 07:59:18;;;;;;;4.18;2.42;;;15.80;99.90;;;;;;5040909;28;20493;-94
2022/10/05 08:01:50;;;;;;;4.72;2.05;;;15.80;99.90;;;;;;5042685;28;20025;-93
2022/10/05 08:04:21;;;;;;;4.63;1.70;;;15.90;99.90;;;;;;5044304;28;20028;-93
2022/10/05 08:07:04;;;;;;;4.85;1.65;;;15.90;99.90;;;;;;5042006;28;20072;-93
2022/10/05 08:09:38;;;;;;;2.80;1.63;;;16.00;99.90;;;;;;5047911;28;20139;-93
2022/10/05 08:12:40;;;;;;;5.80;2.00;;;16.10;99.90;;;;;;5045346;28;20017;-93
2022/10/05 08:15:14;;;;;;;3.53;1.65;;;16.20;99.90;;;;;;5045906;28;20040;-92
2022/10/05 08:18:04;;;;;;;4.38;1.90;;;16.20;99.90;;;;;;5039773;28;20032;-94
2022/10/05 08:20:48;;;;;;;4.57;1.80;;;16.20;99.90;;;;;;5044558;28;20025;-93
2022/10/05 08:23:39;;;;;;;3.67;1.98;;;16.30;99.90;;;;;;5045293;28;20028;-93
2022/10/05 08:26:12;;;;;;;3.47;2.10;;;16.40;99.90;;;;;;5042839;28;20037;-93
2022/10/05 08:29:06;;;;;;;4.07;2.10;;;16.40;99.90;;;;;;5035410;28;20060;-92
2022/10/05 08:31:37;;;;;;;4.57;2.30;;;16.50;99.90;;;;;;5037837;28;20037;-92
2022/10/05 08:34:19;;;;;;;3.22;1.75;;;16.60;99.90;;;;;;5035309;28;20110;-92
2022/10/05 08:37:07;;;;;;;4.65;1.98;;;16.60;99.90;;;;;;5039189;28;20056;-93
2022/10/05 08:39:48;;;;;;;4.85;2.65;;;16.70;99.90;;;;;;5042262;28;20558;-93
2022/10/05 08:42:19;;;;;;;6.45;2.38;;;16.80;99.90;;;;;;5050525;28;20040;-93
2022/10/05 08:44:54;;;;;;;5.22;2.53;;;16.80;99.90;;;;;;5039409;28;20098;-93
2022/10/05 08:47:35;;;;;;;3.90;2.65;;;16.90;99.90;;;;;;5042648;28;20079;-93
2022/10/05 08:50:19;;;;;;;7.40;2.60;;;17.00;99.90;;;;;;5049270;28;20044;-93
2022/10/05 08:53:24;;;;;;;4.15;2.40;;;17.10;99.90;;;;;;5042183;28;20037;-93
2022/10/05 08:56:05;;;;;;;5.32;3.17;;;17.20;99.90;;;;;;5041155;28;20056;-92
2022/10/05 08:58:56;;;;;;;5.13;2.60;;;17.30;99.90;;;;;;5044163;28;20029;-93
2022/10/05 09:01:55;;;;;;;3.92;1.83;;;17.40;99.90;;;;;;5037533;28;20164;-93
2022/10/05 09:04:43;;;;;;;3.65;2.45;;;17.50;99.90;;;;;;5039875;28;20027;-94
2022/10/05 09:07:48;;;;;;;3.47;1.98;;;17.50;99.90;;;;;;5037801;28;20048;-93
2022/10/05 09:10:36;;;;;;;5.28;2.17;;;17.60;99.90;;;;;;5058630;28;20029;-93
2022/10/05 09:13:20;;;;;;;4.75;2.13;;;17.60;99.90;;;;;;5042541;28;20036;-93
2022/10/05 09:16:10;;;;;;;6.70;1.88;;;17.70;99.90;;;;;;5039511;28;20029;-93
2022/10/05 09:19:02;;;;;;;4.10;2.22;;;17.80;99.90;;;;;;5039536;28;20452;-93
2022/10/05 09:21:42;;;;;;;3.80;1.73;;;17.90;99.90;;;;;;5040863;28;20024;-94
2022/10/05 09:24:44;;;;;;;4.82;1.90;;;17.90;99.90;;;;;;5043703;28;20192;-94
2022/10/05 09:27:17;;;;;;;5.80;2.42;;;18.00;99.90;;;;;;5039028;28;20513;-93
2022/10/05 09:29:42;;;;;;;5.22;1.80;;;18.10;99.90;;;;;;5041640;28;20026;-92
2022/10/05 09:32:33;;;;;;;4.97;2.00;;;18.10;99.90;;;;;;5040257;28;20049;-95
2022/10/05 09:35:27;;;;;;;4.47;2.10;;;18.10;99.90;;;;;;5037719;28;20041;-93
2022/10/05 09:38:11;;;;;;;5.53;2.13;;;18.10;99.90;;;;;;5042414;28;20036;-92
2022/10/05 09:40:57;;;;;;;4.03;1.90;;;18.20;99.90;;;;;;5041627;28;20036;-93
2022/10/05 09:43:54;;;;;;;4.22;1.65;;;18.30;99.90;;;;;;5039652;28;20033;-94
2022/10/05 09:46:55;;;;;;;4.20;1.70;;;18.40;99.90;;;;;;5042448;28;20037;-93
2022/10/05 09:50:13;;;;;;;2.97;1.60;;;18.40;99.90;;;;;;5027457;28;20045;-95
2022/10/05 09:52:58;;;;;;;5.25;1.40;;;18.50;99.90;;;;;;5043807;28;20076;-94
2022/10/05 09:55:32;;;;;;;5.32;1.63;;;18.50;99.90;;;;;;5039696;28;20068;-94
2022/10/05 09:58:28;;;;;;;2.72;1.25;;;18.50;99.90;;;;;;5046312;28;20021;-94
2022/10/05 10:01:10;;;;;;;4.70;1.52;;;18.60;99.90;;;;;;5041538;28;20026;-93
2022/10/05 10:04:14;;;;;;;4.43;1.38;;;18.70;99.90;;;;;;5043014;28;20040;-93
2022/10/05 10:07:19;;;;;;;3.50;1.17;;;18.80;99.90;;;;;;5044059;28;20036;-93
2022/10/05 10:09:55;;;;;;;2.42;1.40;;;18.80;99.90;;;;;;5042039;28;20053;-93
2022/10/05 10:12:30;;;;;;;5.05;1.73;;;18.80;99.90;;;;;;5040277;28;20036;-94
2022/10/05 10:15:30;;;;;;;4.18;1.40;;;18.90;99.90;;;;;;5036826;28;20120;-93
2022/10/05 10:18:35;;;;;;;4.57;1.77;;;19.00;99.90;;;;;;5050815;28;20018;-93
2022/10/05 10:21:28;;;;;;;3.03;1.17;;;19.00;99.90;;;;;;5041535;28;20028;-92
2022/10/05 10:24:19;;;;;;;3.90;1.80;;;18.90;99.90;;;;;;5037132;28;20044;-94
2022/10/05 10:26:57;;;;;;;2.60;1.30;;;18.90;99.90;;;;;;5036585;28;20040;-93
2022/10/05 10:29:41;;;;;;;3.50;1.45;;;18.90;99.90;;;;;;5037051;28;20025;-91
2022/10/05 10:32:41;;;;;;;2.65;1.70;;;19.00;99.90;;;;;;5042992;28;20053;-93
2022/10/05 10:35:33;;;;;;;2.80;1.40;;;19.00;99.90;;;;;;5040258;28;20552;-93
2022/10/05 10:38:13;;;;;;;3.50;1.60;;;19.10;99.90;;;;;;5036272;28;20037;-91
2022/10/05 10:41:06;;;;;;;3.53;1.13;;;19.10;99.90;;;;;;5035206;28;20032;-93
2022/10/05 10:44:10;;;;;;;2.60;1.35;;;19.10;99.90;;;;;;5039360;28;20029;-93
2022/10/05 10:46:48;;;;;;;2.50;1.00;;;19.20;99.90;;;;;;5043917;28;20033;-93
2022/10/05 10:49:45;;;;;;;4.07;1.00;;;19.20;99.90;;;;;;5040389;28;20029;-93
2022/10/05 10:52:52;;;;;;;3.80;0.73;;;19.30;99.90;;;;;;5034425;28;20033;-93
2022/10/05 10:55:37;;;;;;;2.90;0.93;;;19.30;99.90;;;;;;5037002;28;20029;-93
2022/10/05 10:58:36;;;;;;;2.42;0.90;;;19.30;99.90;;;;;;5053025;28;20040;-92
2022/10/05 11:01:26;;;;;;;2.10;0.90;;;19.40;99.90;;;;;;5040953;28;20479;-92
2022/10/05 11:04:11;;;;;;;3.63;0.90;;;19.40;99.90;;;;;;5038146;28;20018;-92
2022/10/05 11:06:55;;;;;;;2.00;0.70;;;19.50;99.90;;;;;;5037383;28;20041;-93
2022/10/05 11:09:37;;;;;;;3.35;1.10;;;19.50;99.90;;;;;;5046221;28;20032;-91
2022/10/05 11:12:16;;;;;;;2.92;1.00;;;19.50;99.90;;;;;;5034719;28;20038;-92
2022/10/05 11:15:00;;;;;;;2.90;0.90;;;19.50;99.90;;;;;;5042142;28;20568;-91
2022/10/05 11:17:37;;;;;;;5.43;0.80;;;19.50;99.90;;;;;;5040470;28;20025;-92
2022/10/05 11:20:41;;;;;;;1.95;0.80;;;19.40;99.90;;;;;;5055110;28;20044;-93
2022/10/05 11:23:38;;;;;;;2.42;1.00;;;19.40;99.90;;;;;;5033701;28;20060;-93
2022/10/05 11:26:31;;;;;;;3.47;0.93;;;19.50;99.90;;;;;;5046093;28;20063;-91
2022/10/05 11:29:20;;;;;;;5.97;1.02;;;19.60;99.90;;;;;;5056318;28;20041;-88
2022/10/05 11:32:07;;;;;;;2.83;0.82;;;19.50;99.90;;;;;;5047104;28;20053;-91
2022/10/05 11:34:50;;;;;;;3.22;1.00;;;19.50;99.90;;;;;;5037442;28;20045;-92
2022/10/05 11:37:48;;;;;;;2.53;0.90;;;19.50;99.90;;;;;;5034717;28;21744;-93
2022/10/05 11:40:32;;;;;;;3.40;1.00;;;19.50;99.90;;;;;;5041997;28;20021;-91
2022/10/05 11:43:17;;;;;;;2.78;1.02;;;19.50;99.90;;;;;;5044930;28;20045;-92
2022/10/05 11:46:09;;;;;;;4.00;0.93;;;19.60;99.90;;;;;;5038590;28;20031;-94
2022/10/05 11:48:53;;;;;;;;;;;19.70;99.90;;;;;;5041186;28;20017;-92
2022/10/05 11:51:30;;;;;;;5.82;1.77;;;19.70;99.90;;;;;;5047048;28;20126;-93
2022/10/05 11:54:05;;;;;;;2.42;0.70;;;19.70;99.90;;;;;;5045312;28;20022;-93
2022/10/05 11:56:51;;;;;;;3.22;0.90;;;19.80;99.90;;;;;;5040713;28;20025;-92
2022/10/05 11:59:48;;;;;;;3.95;1.00;;;19.90;99.90;;;;;;5040866;28;20079;-90
2022/10/05 12:02:26;;;;;;;2.85;0.80;;;20.00;99.90;;;;;;5037398;28;20037;-93
2022/10/05 12:05:11;;;;;;;4.55;0.90;;;20.00;99.90;;;;;;5037788;28;20032;-88
2022/10/05 12:08:28;;;;;;;5.65;0.80;;;20.10;99.90;;;;;;5047836;28;20044;-93
2022/10/05 12:12:01;;;;;;;4.50;0.80;;;20.30;99.90;;;;;;4994778;28;20077;-92
2022/10/05 12:14:36;;;;;;;2.58;0.80;;;20.50;99.90;;;;;;4975746;28;20052;-91
2022/10/05 12:17:21;;;;;;;3.33;0.80;;;20.40;99.90;;;;;;4998197;28;20028;-92
2022/10/05 12:20:04;;;;;;;2.80;0.73;;;20.40;99.90;;;;;;5027880;28;20124;-92
2022/10/05 12:22:36;;;;;;;1.55;0.70;;;20.40;99.90;;;;;;5037800;28;20432;-92
2022/10/05 12:25:17;;;;;;;2.38;0.80;;;20.40;99.90;;;;;;5048779;28;20025;-91
2022/10/05 12:27:46;;;;;;;3.15;1.00;;;20.50;99.90;;;;;;5050531;28;20124;-91
2022/10/05 12:30:18;;;;;;;4.40;0.68;;;20.40;99.90;;;;;;5052983;28;20424;-92
2022/10/05 12:33:08;;;;;;;3.05;0.63;;;20.40;99.90;;;;;;5054851;28;20025;-91
2022/10/05 12:35:42;;;;;;;1.77;0.50;;;20.40;99.90;;;;;;5054917;28;20040;-91
2022/10/05 12:38:32;;;;;;;1.33;0.63;;;20.50;99.90;;;;;;5047478;28;20033;-91
2022/10/05 12:41:23;;;;;;;2.63;0.60;;;20.60;99.90;;;;;;5053233;28;20025;-93
2022/10/05 12:44:16;;;;;;;1.80;0.60;;;20.70;99.90;;;;;;5036996;28;20112;-90
2022/10/05 12:46:53;;;;;;;3.53;0.60;;;20.80;99.90;;;;;;5047805;28;20554;-92
2022/10/05 12:50:02;;;;;;;1.55;0.60;;;20.70;99.90;;;;;;5047868;28;20024;-91
2022/10/05 12:52:54;;;;;;;1.33;0.60;;;20.80;99.90;;;;;;5038726;28;20456;-91
2022/10/05 12:55:37;;;;;;;1.67;0.60;;;20.80;99.90;;;;;;5055494;28;20047;-92
2022/10/05 12:58:44;;;;;;;2.20;0.65;;;20.80;99.90;;;;;;5052456;28;20052;-92
2022/10/05 13:01:38;;;;;;;2.42;0.60;;;20.80;99.90;;;;;;5043819;28;20120;-89
2022/10/05 13:04:18;;;;;;;1.52;0.50;;;20.90;99.90;;;;;;5037205;28;20076;-92
2022/10/05 13:07:11;;;;;;;1.85;0.70;;;21.20;99.90;;;;;;5037239;28;20033;-89
2022/10/05 13:09:46;;;;;;;2.33;0.50;;;21.30;99.90;;;;;;5037128;28;20022;-91
2022/10/05 13:12:25;;;;;;;2.58;0.57;;;21.30;99.90;;;;;;5053054;28;20021;-91
2022/10/05 13:15:16;;;;;;;2.45;0.55;;;21.20;99.90;;;;;;5055465;28;20032;-91
2022/10/05 13:17:48;;;;;;;4.03;0.60;;;21.20;99.90;;;;;;5055480;28;20488;-92
2022/10/05 13:20:50;;;;;;;1.45;0.50;;;21.30;99.90;;;;;;5037268;28;20108;-92
2022/10/05 13:23:15;;;;;;;4.13;0.50;;;21.50;99.90;;;;;;5034957;28;20068;-91
2022/10/05 13:25:55;;;;;;;1.40;0.40;;;21.50;99.90;;;;;;5037167;28;20404;-92
2022/10/05 13:28:29;;;;;;;1.40;0.40;;;21.50;99.90;;;;;;5044738;28;20064;-90
2022/10/05 13:31:17;;;;;;;3.03;0.70;;;21.50;99.90;;;;;;5053968;28;20486;-90
2022/10/05 13:34:06;;;;;;;1.88;0.47;;;21.60;99.90;;;;;;5046819;28;20060;-90
2022/10/05 13:36:47;;;;;;;2.20;0.40;;;21.70;99.80;;;;;;5037517;28;20028;-89
2022/10/05 13:39:45;;;;;;;3.55;0.40;;;21.70;99.70;;;;;;5037592;28;20132;-91
2022/10/05 13:42:24;;;;;;;4.57;0.52;;;21.60;99.20;;;;;;5040388;28;20040;-89
2022/10/05 13:45:03;;;;;;;4.07;0.40;;;21.50;99.20;;;;;;5040497;28;20053;-90
2022/10/05 13:47:30;;;;;;;2.70;0.40;;;21.50;99.50;;;;;;5048342;28;20069;-89
2022/10/05 13:50:02;;;;;;;3.25;0.63;;;21.60;99.50;;;;;;5038299;28;20079;-91
2022/10/05 13:52:52;;;;;;;1.70;0.40;;;21.80;98.90;;;;;;5031949;28;20033;-90
2022/10/05 13:55:36;;;;;;;2.25;0.50;;;21.80;98.80;;;;;;5035579;28;20458;-91
2022/10/05 13:58:25;;;;;;;2.47;0.50;;;21.80;98.50;;;;;;5049318;28;20028;-91
2022/10/05 14:00:54;;;;;;;3.75;0.90;;;21.60;98.20;;;;;;5038297;28;20091;-92
2022/10/05 14:03:35;;;;;;;1.65;0.50;;;21.40;98.40;;;;;;5035041;28;20560;-88
2022/10/05 14:06:12;;;;;;;2.63;0.57;;;21.30;98.60;;;;;;5036853;28;20779;-89
2022/10/05 14:08:52;;;;;;;2.65;0.75;;;21.20;98.60;;;;;;5054349;28;20021;-88
2022/10/05 14:11:30;;;;;;;3.85;0.60;;;21.20;98.80;;;;;;5055109;28;20501;-91